Аэропорт: Кокшетау. Кокшетау

ICAO: UACK

METAR:
2022-01-28 08:30:00
UACK 280830Z 16002MPS CAVOK M10/M14 Q1023 NOSIG RMK QFE743/0991
METAR:
2022-01-28 08:01:00
TAF UACK 280801Z 2809/2818 16003MPS 9999 SCT040 TEMPO 2809/2818 18006MPS